Time;durP1;ratioP1;P1;durP2;ratioP2;P2;SDS_P1;SDS_P2;PMS_P1;PMS_P2;Temp;Humidity;BMP_temperature;BMP_pressure;BME280_temperature;BME280_humidity;BME280_pressure;Samples;Min_cycle;Max_cycle;Signal;HPM_P1;HPM_P2
2024/03/10 00:01:41;;;;;;;40.28;19.65;;;7.90;70.50;;;;;;9174912;19;20014;-67
2024/03/10 00:04:47;;;;;;;36.03;17.55;;;7.90;70.50;;;;;;9175989;19;20345;-66
2024/03/10 00:07:58;;;;;;;36.13;18.58;;;7.90;70.50;;;;;;9176741;19;20018;-67
2024/03/10 00:11:03;;;;;;;34.33;17.77;;;7.90;70.60;;;;;;9175947;19;20478;-66
2024/03/10 00:14:11;;;;;;;36.65;17.77;;;7.90;70.60;;;;;;9175735;19;20014;-67
2024/03/10 00:17:18;;;;;;;40.75;19.25;;;7.90;70.60;;;;;;9176792;19;20017;-67
2024/03/10 00:20:26;;;;;;;37.53;18.00;;;7.90;70.60;;;;;;9175956;19;20022;-67
2024/03/10 00:23:34;;;;;;;34.17;17.30;;;7.90;70.60;;;;;;9176363;19;20011;-67
2024/03/10 00:26:42;;;;;;;36.35;18.15;;;7.90;70.60;;;;;;9176357;19;20015;-67
2024/03/10 00:29:48;;;;;;;34.88;18.80;;;7.90;70.70;;;;;;9174010;19;20097;-67
2024/03/10 00:32:55;;;;;;;38.40;17.90;;;7.90;70.70;;;;;;9174414;19;20018;-67
2024/03/10 00:36:01;;;;;;;36.80;18.20;;;7.90;70.70;;;;;;9172637;19;20022;-66
2024/03/10 00:39:11;;;;;;;38.00;19.55;;;7.90;70.70;;;;;;9169053;19;20033;-67
2024/03/10 00:42:17;;;;;;;36.95;19.38;;;7.90;70.70;;;;;;9174601;19;20040;-67
2024/03/10 00:45:25;;;;;;;39.53;19.23;;;7.90;70.70;;;;;;9175565;19;20015;-67
2024/03/10 00:48:31;;;;;;;34.75;17.35;;;7.90;70.80;;;;;;9171364;19;20010;-67
2024/03/10 00:51:38;;;;;;;35.72;18.08;;;7.80;70.70;;;;;;9169149;19;20021;-66
2024/03/10 00:54:46;;;;;;;36.72;18.05;;;7.80;70.80;;;;;;9173610;19;20475;-66
2024/03/10 00:57:54;;;;;;;33.53;17.90;;;7.80;70.80;;;;;;9174332;19;20021;-66
2024/03/10 01:01:00;;;;;;;36.58;18.27;;;7.70;70.80;;;;;;9174725;19;20024;-66
2024/03/10 01:04:08;;;;;;;37.58;18.45;;;7.70;70.80;;;;;;9173156;19;20047;-66
2024/03/10 01:07:14;;;;;;;36.00;19.10;;;7.70;70.90;;;;;;9175081;19;20007;-66
2024/03/10 01:10:35;;;;;;;34.95;17.77;;;7.70;70.90;;;;;;9174944;19;20632;-66
2024/03/10 01:13:42;;;;;;;34.30;18.10;;;7.70;70.90;;;;;;9173211;19;20088;-67
2024/03/10 01:16:49;;;;;;;37.55;18.83;;;7.70;70.90;;;;;;9172589;19;20027;-66
2024/03/10 01:19:56;;;;;;;34.80;19.20;;;7.70;70.90;;;;;;9173274;19;20094;-67
2024/03/10 01:23:04;;;;;;;33.85;18.02;;;7.70;71.00;;;;;;9174486;19;20025;-67
2024/03/10 01:26:12;;;;;;;38.40;19.98;;;7.60;71.00;;;;;;9174046;19;20010;-67
2024/03/10 01:29:22;;;;;;;36.92;19.13;;;7.60;71.00;;;;;;9174235;19;20020;-66
2024/03/10 01:32:28;;;;;;;36.50;18.27;;;7.60;71.00;;;;;;9173824;19;20018;-66
2024/03/10 01:35:36;;;;;;;38.58;18.02;;;7.60;71.00;;;;;;9171938;19;20014;-67
2024/03/10 01:38:42;;;;;;;36.35;18.55;;;7.60;71.00;;;;;;9166507;19;20013;-65
2024/03/10 01:41:53;;;;;;;34.28;18.45;;;7.50;70.90;;;;;;9173189;19;20086;-65
2024/03/10 01:44:59;;;;;;;38.63;19.27;;;7.60;71.00;;;;;;9172761;19;20072;-66
2024/03/10 01:48:08;;;;;;;38.38;18.63;;;7.50;71.00;;;;;;9170825;19;20019;-64
2024/03/10 01:51:17;;;;;;;37.85;19.05;;;7.50;71.00;;;;;;9173087;19;20489;-65
2024/03/10 01:54:28;;;;;;;36.35;18.48;;;7.40;71.00;;;;;;9172770;19;20530;-66
2024/03/10 01:57:38;;;;;;;37.45;18.98;;;7.40;71.10;;;;;;9171061;19;20744;-66
2024/03/10 02:00:46;;;;;;;35.65;18.83;;;7.40;71.10;;;;;;9172993;19;20018;-66
2024/03/10 02:03:52;;;;;;;40.50;20.25;;;7.40;71.10;;;;;;9172902;19;20025;-65
2024/03/10 02:07:00;;;;;;;38.50;18.23;;;7.30;71.10;;;;;;9173940;19;20364;-67
2024/03/10 02:10:06;;;;;;;41.47;19.95;;;7.30;71.10;;;;;;9172436;19;20011;-66
2024/03/10 02:13:18;;;;;;;39.03;19.48;;;7.20;71.10;;;;;;9172330;19;20022;-66
2024/03/10 02:16:25;;;;;;;40.95;20.27;;;7.20;71.20;;;;;;9174488;19;20015;-66
2024/03/10 02:19:32;;;;;;;43.72;21.30;;;7.20;71.30;;;;;;9180760;19;20349;-67
2024/03/10 02:22:38;;;;;;;33.70;18.70;;;7.20;71.30;;;;;;9180650;19;20011;-66
2024/03/10 02:25:50;;;;;;;43.75;20.88;;;7.10;71.40;;;;;;9180825;19;20021;-66
2024/03/10 02:29:14;;;;;;;40.47;19.63;;;7.10;71.40;;;;;;9180297;19;20097;-66
2024/03/10 02:48:59;;;;;;;45.10;21.48;;;7.00;71.70;;;;;;9180091;19;20014;-66
2024/03/10 02:52:08;;;;;;;44.40;20.88;;;7.00;71.80;;;;;;9177883;19;20055;-67
2024/03/10 02:55:13;;;;;;;38.13;19.90;;;6.90;71.80;;;;;;9179053;19;20014;-66
2024/03/10 02:58:24;;;;;;;40.58;20.13;;;6.90;71.80;;;;;;9179634;19;20635;-66
2024/03/10 03:01:30;;;;;;;47.40;20.10;;;6.90;71.90;;;;;;9179214;19;20487;-66
2024/03/10 03:04:37;;;;;;;43.17;19.38;;;6.90;72.00;;;;;;9178918;19;20030;-66
2024/03/10 03:07:43;;;;;;;42.10;19.77;;;6.90;72.00;;;;;;9179432;19;20028;-66
2024/03/10 03:10:51;;;;;;;39.70;20.13;;;6.90;72.00;;;;;;9178631;19;20369;-65
2024/03/10 03:14:00;;;;;;;42.30;21.58;;;6.90;72.00;;;;;;9178457;19;20475;-65
2024/03/10 03:17:08;;;;;;;42.55;20.75;;;6.80;72.00;;;;;;9177161;19;20356;-66
2024/03/10 03:20:15;;;;;;;39.20;19.23;;;6.80;72.00;;;;;;9178640;19;20047;-65
2024/03/10 03:23:24;;;;;;;41.00;19.42;;;6.80;72.00;;;;;;9178798;19;20010;-66
2024/03/10 03:26:29;;;;;;;41.10;20.60;;;6.80;72.00;;;;;;9177445;19;20128;-66
2024/03/10 03:29:40;;;;;;;42.97;20.50;;;6.80;72.10;;;;;;9177864;19;20579;-65
2024/03/10 03:32:45;;;;;;;45.47;20.30;;;6.80;72.20;;;;;;9177811;19;20022;-66
2024/03/10 03:35:53;;;;;;;43.00;20.23;;;6.80;72.20;;;;;;9176489;19;20025;-65
2024/03/10 03:38:59;;;;;;;42.47;19.23;;;6.80;72.20;;;;;;9170664;19;20378;-65
2024/03/10 03:42:07;;;;;;;38.10;19.17;;;6.70;72.20;;;;;;9178236;19;20022;-65
2024/03/10 03:45:16;;;;;;;43.33;20.23;;;6.70;72.20;;;;;;9177427;19;20041;-65
2024/03/10 03:48:23;;;;;;;41.55;19.65;;;6.80;72.40;;;;;;9177043;19;20021;-65
2024/03/10 03:51:29;;;;;;;42.50;20.00;;;6.70;72.30;;;;;;9177456;19;20360;-65
2024/03/10 03:54:39;;;;;;;40.60;19.10;;;6.80;72.30;;;;;;9176759;19;20025;-66
2024/03/10 03:57:45;;;;;;;43.50;20.38;;;6.80;72.30;;;;;;9174942;19;20018;-66
2024/03/10 04:00:55;;;;;;;43.65;19.50;;;6.70;72.30;;;;;;9175099;19;20015;-66
2024/03/10 04:04:01;;;;;;;43.53;20.55;;;6.70;72.40;;;;;;9177650;19;20079;-66
2024/03/10 04:07:12;;;;;;;45.00;20.15;;;6.70;72.40;;;;;;9176092;19;20025;-66
2024/03/10 04:10:18;;;;;;;44.05;20.85;;;6.70;72.50;;;;;;9175418;19;20086;-66
2024/03/10 04:13:25;;;;;;;49.88;19.52;;;6.70;72.40;;;;;;9176781;19;20027;-66
2024/03/10 04:16:33;;;;;;;41.05;19.58;;;6.70;72.50;;;;;;9175636;19;20014;-65
2024/03/10 04:19:41;;;;;;;38.30;18.80;;;6.70;72.50;;;;;;9175674;19;20015;-66
2024/03/10 04:22:48;;;;;;;36.97;18.92;;;6.70;72.60;;;;;;9175024;19;20006;-66
2024/03/10 04:25:56;;;;;;;35.83;18.35;;;6.70;72.60;;;;;;9176414;19;20086;-66
2024/03/10 04:29:02;;;;;;;43.17;19.88;;;6.70;72.60;;;;;;9175005;19;20002;-66
2024/03/10 04:32:12;;;;;;;39.72;18.55;;;6.70;72.60;;;;;;9176096;19;20025;-66
2024/03/10 04:35:19;;;;;;;37.65;18.52;;;6.70;72.60;;;;;;9175503;19;20018;-65
2024/03/10 04:38:27;;;;;;;38.25;19.45;;;6.70;73.30;;;;;;9166328;19;20023;-66
2024/03/10 04:41:33;;;;;;;37.75;18.25;;;6.70;72.70;;;;;;9175383;19;20010;-65
2024/03/10 04:44:40;;;;;;;37.58;18.48;;;6.70;72.70;;;;;;9175237;19;20407;-65
2024/03/10 04:47:48;;;;;;;36.47;18.13;;;6.70;72.80;;;;;;9175340;19;20046;-65
2024/03/10 04:50:56;;;;;;;38.35;18.52;;;6.70;72.80;;;;;;9175483;19;20018;-65
2024/03/10 04:54:05;;;;;;;37.70;19.08;;;6.70;72.80;;;;;;9175095;19;20065;-66
2024/03/10 04:57:13;;;;;;;42.60;19.20;;;6.60;72.80;;;;;;9174727;19;20010;-65
2024/03/10 05:00:19;;;;;;;33.00;18.08;;;6.70;72.80;;;;;;9173760;19;20013;-66
2024/03/10 05:03:30;;;;;;;38.33;18.27;;;6.60;72.80;;;;;;9174659;19;20019;-66
2024/03/10 05:06:37;;;;;;;38.33;18.98;;;6.60;72.80;;;;;;9173323;19;20010;-66
2024/03/10 05:09:45;;;;;;;39.97;18.70;;;6.60;72.80;;;;;;9174006;19;20015;-66
2024/03/10 05:12:51;;;;;;;37.63;18.15;;;6.60;72.80;;;;;;9175144;19;20015;-66
2024/03/10 05:15:58;;;;;;;40.80;18.63;;;6.60;72.90;;;;;;9174479;19;20026;-66
2024/03/10 05:19:08;;;;;;;43.58;19.60;;;6.60;72.90;;;;;;9171468;19;20398;-66
2024/03/10 05:22:15;;;;;;;38.78;18.30;;;6.50;72.90;;;;;;9172487;19;20018;-65
2024/03/10 05:25:22;;;;;;;36.63;17.83;;;6.50;72.80;;;;;;9172596;19;20006;-65
2024/03/10 05:28:29;;;;;;;41.08;18.95;;;6.50;72.90;;;;;;9173193;19;20029;-65
2024/03/10 05:31:35;;;;;;;38.83;19.45;;;6.50;72.90;;;;;;9170920;19;20050;-65
2024/03/10 05:34:46;;;;;;;38.33;18.77;;;6.50;72.90;;;;;;9173066;19;20014;-65
2024/03/10 05:37:52;;;;;;;39.97;18.35;;;6.40;73.00;;;;;;9173013;19;20030;-66
2024/03/10 05:40:59;;;;;;;34.95;17.67;;;6.40;73.00;;;;;;9169120;19;20041;-66
2024/03/10 05:44:05;;;;;;;38.47;19.13;;;6.40;73.00;;;;;;9173154;19;20010;-65
2024/03/10 05:47:14;;;;;;;34.55;17.60;;;6.30;73.00;;;;;;9172986;19;20022;-66
2024/03/10 05:50:22;;;;;;;36.03;18.00;;;6.30;73.10;;;;;;9177509;19;20018;-66
2024/03/10 05:53:30;;;;;;;34.75;18.27;;;6.30;73.10;;;;;;9182444;19;20368;-66
2024/03/10 05:56:36;;;;;;;37.97;19.38;;;6.30;73.20;;;;;;9181794;19;20011;-66
2024/03/10 05:59:45;;;;;;;41.17;19.27;;;6.30;73.20;;;;;;9178372;19;20015;-66
2024/03/10 06:02:52;;;;;;;39.80;18.55;;;6.30;73.20;;;;;;9181694;19;20014;-66
2024/03/10 06:06:02;;;;;;;36.75;18.58;;;6.20;73.10;;;;;;9182215;19;20014;-65
2024/03/10 06:09:07;;;;;;;41.55;19.15;;;6.20;73.30;;;;;;9181407;19;20018;-65
2024/03/10 06:12:15;;;;;;;38.80;18.23;;;6.20;73.20;;;;;;9180907;19;20019;-66
2024/03/10 06:15:21;;;;;;;40.00;19.45;;;6.10;73.30;;;;;;9181768;19;20507;-65
2024/03/10 06:18:31;;;;;;;42.10;19.80;;;6.10;73.30;;;;;;9183140;19;20022;-65
2024/03/10 06:28:18;;;;;;;39.47;18.13;;;6.10;73.50;;;;;;9180497;19;20050;-65
2024/03/10 06:31:26;;;;;;;37.70;18.88;;;6.00;74.10;;;;;;9182672;19;20049;-66
2024/03/10 06:34:31;;;;;;;39.85;18.95;;;6.00;73.50;;;;;;9180626;19;20019;-66
2024/03/10 06:37:42;;;;;;;38.15;18.65;;;6.00;73.50;;;;;;9180382;19;20018;-66
2024/03/10 06:40:48;;;;;;;41.28;19.70;;;6.00;73.50;;;;;;9177192;19;20018;-66
2024/03/10 06:43:56;;;;;;;43.67;20.25;;;6.10;73.60;;;;;;9181169;19;20029;-66
2024/03/10 06:47:01;;;;;;;40.47;19.48;;;6.00;73.60;;;;;;9181561;19;20011;-66
2024/03/10 06:50:10;;;;;;;39.53;18.10;;;6.00;73.60;;;;;;9180665;19;20020;-66
2024/03/10 06:53:18;;;;;;;46.58;21.40;;;6.10;73.70;;;;;;9179318;19;20011;-66
2024/03/10 06:56:26;;;;;;;40.70;20.38;;;6.00;73.70;;;;;;9179217;19;20451;-66
2024/03/10 06:59:32;;;;;;;43.28;20.30;;;6.10;73.80;;;;;;9177568;19;20017;-66
2024/03/10 07:02:39;;;;;;;36.40;19.38;;;6.10;73.80;;;;;;9175962;19;20014;-66
2024/03/10 07:05:48;;;;;;;44.70;20.38;;;6.10;73.90;;;;;;9178873;19;20018;-66
2024/03/10 07:08:59;;;;;;;44.70;20.13;;;6.00;73.80;;;;;;9180019;19;20041;-67
2024/03/10 07:12:06;;;;;;;49.33;21.10;;;6.00;73.90;;;;;;9178710;19;20642;-68
2024/03/10 07:15:15;;;;;;;43.03;20.38;;;6.00;73.90;;;;;;9179328;19;20010;-68
2024/03/10 07:18:20;;;;;;;44.78;20.92;;;6.00;74.00;;;;;;9178054;19;20030;-68
2024/03/10 07:21:28;;;;;;;42.33;21.70;;;6.00;74.00;;;;;;9178906;19;20021;-71
2024/03/10 07:24:37;;;;;;;41.47;20.73;;;6.00;74.00;;;;;;9176233;19;20017;-69
2024/03/10 07:27:45;;;;;;;42.10;20.48;;;6.00;74.00;;;;;;9178677;19;20022;-69
2024/03/10 07:30:51;;;;;;;45.60;21.42;;;6.00;74.00;;;;;;9178188;19;20015;-69
2024/03/10 07:33:59;;;;;;;45.83;21.52;;;6.10;74.10;;;;;;9177605;19;20048;-67
2024/03/10 07:37:04;;;;;;;46.70;22.15;;;6.10;74.10;;;;;;9177262;19;20010;-68
2024/03/10 07:40:19;;;;;;;47.70;22.17;;;6.10;74.20;;;;;;9171896;19;20023;-69
2024/03/10 07:43:25;;;;;;;47.72;22.85;;;6.10;74.20;;;;;;9177891;19;20019;-69
2024/03/10 07:46:33;;;;;;;43.58;22.20;;;6.10;74.20;;;;;;9176612;19;20019;-68
2024/03/10 07:49:38;;;;;;;47.67;22.42;;;6.10;74.30;;;;;;9177685;19;20031;-69
2024/03/10 07:52:47;;;;;;;41.65;21.75;;;6.10;74.30;;;;;;9177553;19;20026;-68
2024/03/10 07:55:56;;;;;;;46.72;22.73;;;6.10;74.30;;;;;;9176895;19;20022;-70
2024/03/10 07:59:03;;;;;;;46.00;23.25;;;6.20;74.40;;;;;;9175657;19;20010;-70
2024/03/10 08:02:09;;;;;;;48.70;23.10;;;6.20;74.40;;;;;;9176677;19;20113;-69
2024/03/10 08:05:16;;;;;;;50.97;21.80;;;6.20;74.50;;;;;;9175520;19;20014;-68
2024/03/10 08:08:23;;;;;;;50.17;25.02;;;6.30;74.50;;;;;;9174498;19;20028;-69
2024/03/10 08:11:34;;;;;;;44.40;22.55;;;6.30;74.60;;;;;;9176484;19;20021;-69
2024/03/10 08:14:41;;;;;;;49.40;23.00;;;6.40;74.70;;;;;;9176165;19;20030;-70
2024/03/10 08:17:48;;;;;;;50.28;23.15;;;6.50;74.70;;;;;;9174873;19;20026;-69
2024/03/10 08:20:54;;;;;;;47.42;22.30;;;6.50;74.70;;;;;;9172301;19;20117;-70
2024/03/10 08:24:02;;;;;;;48.00;22.73;;;6.60;74.70;;;;;;9175312;19;20022;-70
2024/03/10 08:27:11;;;;;;;48.28;23.20;;;6.70;74.70;;;;;;9172271;19;20014;-69
2024/03/10 08:30:19;;;;;;;47.60;23.08;;;6.70;74.70;;;;;;9173942;19;20015;-69
2024/03/10 08:33:24;;;;;;;47.45;22.83;;;6.80;74.60;;;;;;9175513;19;20014;-69
2024/03/10 08:36:33;;;;;;;46.28;22.67;;;6.90;74.70;;;;;;9174614;19;20018;-69
2024/03/10 08:39:38;;;;;;;48.72;22.27;;;6.90;74.70;;;;;;9168481;19;20013;-68
2024/03/10 08:42:49;;;;;;;46.42;23.27;;;7.00;74.70;;;;;;9174388;19;20022;-68
2024/03/10 08:45:54;;;;;;;48.58;23.77;;;7.10;74.70;;;;;;9167796;19;20724;-68
2024/03/10 08:49:02;;;;;;;46.08;23.17;;;7.10;74.60;;;;;;9173149;19;20022;-67
2024/03/10 08:52:08;;;;;;;47.83;22.55;;;7.20;74.70;;;;;;9172163;19;20033;-69
2024/03/10 08:55:18;;;;;;;48.03;22.75;;;7.30;74.70;;;;;;9171572;19;20110;-69
2024/03/10 08:58:28;;;;;;;45.78;22.35;;;7.40;74.70;;;;;;9171802;19;20014;-69
2024/03/10 09:01:35;;;;;;;49.50;23.30;;;7.40;74.60;;;;;;9171741;19;20023;-68
2024/03/10 09:04:41;;;;;;;45.00;22.13;;;7.50;74.60;;;;;;9172595;19;20018;-68
2024/03/10 09:07:49;;;;;;;47.40;23.50;;;7.60;74.60;;;;;;9174319;19;20031;-69
2024/03/10 09:10:57;;;;;;;48.10;23.35;;;7.60;74.50;;;;;;9174128;19;20007;-68
2024/03/10 09:14:13;;;;;;;43.47;21.65;;;7.70;74.60;;;;;;9174702;19;20021;-69
2024/03/10 09:17:19;;;;;;;42.20;21.58;;;7.70;75.20;;;;;;9170845;19;20018;-70
2024/03/10 09:20:27;;;;;;;48.55;23.85;;;7.80;74.50;;;;;;9172504;19;20014;-69
2024/03/10 09:23:33;;;;;;;45.00;23.02;;;7.90;74.50;;;;;;9174811;19;20010;-69
2024/03/10 09:26:40;;;;;;;45.10;23.65;;;7.90;74.50;;;;;;9181620;19;20026;-69
2024/03/10 09:29:51;;;;;;;46.03;24.65;;;8.00;74.50;;;;;;9183611;19;20018;-71
2024/03/10 09:32:58;;;;;;;45.88;22.40;;;8.00;74.60;;;;;;9182714;19;20018;-70
2024/03/10 09:36:05;;;;;;;43.58;22.73;;;8.10;75.20;;;;;;9177716;19;20022;-69
2024/03/10 09:39:12;;;;;;;43.92;22.17;;;8.20;74.50;;;;;;9170773;19;20021;-69
2024/03/10 09:42:19;;;;;;;51.72;24.45;;;8.20;74.50;;;;;;9181925;19;20023;-71
2024/03/10 09:45:31;;;;;;;46.15;24.10;;;8.30;74.50;;;;;;9181560;19;20025;-70
2024/03/10 09:48:40;;;;;;;49.80;24.17;;;8.40;74.60;;;;;;9180730;19;20030;-70
2024/03/10 09:51:52;;;;;;;44.75;23.73;;;8.50;74.70;;;;;;9179353;19;20011;-71
2024/03/10 09:54:58;;;;;;;47.53;23.67;;;8.60;74.70;;;;;;9179861;19;20018;-71
2024/03/10 09:58:12;;;;;;;49.95;25.05;;;8.80;74.70;;;;;;9181191;19;20022;-72
2024/03/10 10:01:36;;;;;;;46.70;22.42;;;9.00;74.80;;;;;;9176986;19;20015;-70
2024/03/10 10:04:53;;;;;;;48.78;24.02;;;9.30;74.90;;;;;;9178113;19;20775;-70
2024/03/10 10:08:01;;;;;;;48.78;23.73;;;9.50;74.70;;;;;;9181221;19;20051;-70
2024/03/10 10:11:08;;;;;;;46.20;24.42;;;9.70;74.50;;;;;;9181733;19;20017;-69
2024/03/10 10:14:16;;;;;;;48.80;23.65;;;9.80;74.40;;;;;;9178480;19;20082;-70
2024/03/10 10:17:27;;;;;;;39.10;22.73;;;10.00;74.20;;;;;;9181317;19;20014;-71
2024/03/10 10:20:33;;;;;;;46.85;24.92;;;10.20;74.10;;;;;;9178638;19;20482;-70
2024/03/10 10:23:40;;;;;;;43.38;23.65;;;10.30;74.10;;;;;;9179705;19;20018;-70
2024/03/10 10:26:58;;;;;;;46.97;24.98;;;10.40;73.80;;;;;;9177556;19;20027;-69
2024/03/10 10:30:09;;;;;;;43.35;23.40;;;10.60;73.70;;;;;;9178366;19;20026;-71
2024/03/10 10:33:17;;;;;;;43.88;23.80;;;10.70;73.60;;;;;;9175327;19;20038;-72
2024/03/10 10:36:25;;;;;;;46.53;25.00;;;10.80;73.50;;;;;;9175936;19;20014;-71
2024/03/10 10:39:33;;;;;;;47.78;24.80;;;10.90;73.40;;;;;;9176482;19;20018;-70
2024/03/10 10:42:41;;;;;;;47.15;25.35;;;11.00;73.30;;;;;;9178195;19;20014;-71
2024/03/10 10:46:05;;;;;;;47.30;24.93;;;11.10;73.20;;;;;;9179976;19;20022;-71
2024/03/10 10:49:16;;;;;;;49.10;25.30;;;11.20;73.20;;;;;;9180583;19;20021;-69
2024/03/10 10:52:22;;;;;;;47.30;24.30;;;11.30;73.10;;;;;;9179459;19;20019;-70
2024/03/10 10:55:32;;;;;;;48.72;23.45;;;11.30;73.60;;;;;;9179919;19;20015;-69
2024/03/10 10:58:38;;;;;;;45.80;23.75;;;11.40;72.80;;;;;;9179878;19;20018;-71
2024/03/10 11:01:46;;;;;;;46.08;24.17;;;11.50;72.70;;;;;;9177255;19;20365;-69
2024/03/10 11:04:55;;;;;;;46.30;22.80;;;11.60;73.30;;;;;;9178336;19;20018;-70
2024/03/10 11:08:05;;;;;;;50.05;25.58;;;11.60;72.50;;;;;;9178526;19;20025;-70
2024/03/10 11:11:14;;;;;;;40.10;22.75;;;11.60;72.50;;;;;;9175929;19;20093;-70
2024/03/10 11:14:26;;;;;;;44.50;24.52;;;11.70;72.50;;;;;;9178229;19;20029;-69
2024/03/10 11:17:32;;;;;;;44.55;25.58;;;11.80;72.40;;;;;;9178936;19;20014;-69
2024/03/10 11:20:44;;;;;;;46.42;25.27;;;11.80;72.40;;;;;;9178389;19;20376;-70
2024/03/10 11:23:51;;;;;;;43.55;23.45;;;11.90;72.30;;;;;;9178737;19;20047;-71
2024/03/10 11:27:15;;;;;;;47.10;25.77;;;11.90;72.30;;;;;;9177905;19;20025;-70
2024/03/10 11:30:51;;;;;;;40.85;23.45;;;12.00;72.10;;;;;;9177941;19;20015;-69
2024/03/10 11:34:03;;;;;;;44.55;24.13;;;12.10;72.10;;;;;;9179370;19;20678;-71
2024/03/10 11:37:19;;;;;;;45.30;23.92;;;12.30;72.30;;;;;;9177431;19;20014;-70
2024/03/10 11:40:30;;;;;;;37.30;21.52;;;12.40;72.10;;;;;;9172931;19;20015;-71
2024/03/10 11:43:35;;;;;;;42.97;23.45;;;12.60;72.20;;;;;;9176180;19;20025;-67
2024/03/10 11:46:43;;;;;;;42.63;24.02;;;12.70;72.00;;;;;;9178038;19;20030;-70
2024/03/10 11:49:48;;;;;;;43.30;22.27;;;12.80;71.90;;;;;;9175371;19;20015;-69
2024/03/10 11:53:02;;;;;;;40.97;21.50;;;13.00;71.80;;;;;;9174646;19;20011;-69
2024/03/10 11:56:08;;;;;;;35.55;21.17;;;13.20;71.60;;;;;;9177292;19;20018;-68
2024/03/10 11:59:18;;;;;;;35.30;20.13;;;13.30;71.50;;;;;;9177080;19;20021;-69
2024/03/10 12:02:25;;;;;;;37.95;20.98;;;13.40;71.20;;;;;;9175329;19;20085;-68
2024/03/10 12:05:32;;;;;;;37.92;21.17;;;13.50;71.10;;;;;;9175214;19;20017;-69
2024/03/10 12:08:42;;;;;;;36.40;21.35;;;13.60;71.00;;;;;;9176749;19;20429;-69
2024/03/10 12:11:50;;;;;;;36.03;20.85;;;13.70;70.80;;;;;;9177076;19;20029;-70
2024/03/10 12:14:56;;;;;;;38.70;22.13;;;13.70;70.70;;;;;;9172876;19;20018;-70
2024/03/10 12:18:04;;;;;;;36.20;20.17;;;13.70;70.60;;;;;;9174429;19;20022;-69
2024/03/10 12:21:14;;;;;;;31.85;19.98;;;13.80;70.50;;;;;;9171851;19;20654;-70
2024/03/10 12:24:27;;;;;;;35.92;20.77;;;13.80;70.30;;;;;;9175793;19;20015;-69
2024/03/10 12:27:35;;;;;;;36.88;20.20;;;13.80;70.20;;;;;;9172697;19;20479;-69
2024/03/10 12:30:44;;;;;;;36.67;19.98;;;13.90;70.20;;;;;;9172724;19;20022;-69
2024/03/10 12:33:49;;;;;;;35.40;20.75;;;13.90;70.10;;;;;;9175145;19;20051;-69
2024/03/10 12:37:01;;;;;;;37.17;20.98;;;13.90;70.00;;;;;;9173034;19;20109;-70
2024/03/10 12:40:14;;;;;;;31.85;18.42;;;13.90;70.00;;;;;;9169936;19;20046;-69
2024/03/10 12:43:23;;;;;;;33.92;19.50;;;14.00;69.80;;;;;;9172409;19;20316;-70
2024/03/10 12:46:29;;;;;;;36.03;19.77;;;14.00;69.80;;;;;;9172237;19;20073;-69
2024/03/10 12:49:38;;;;;;;34.03;19.65;;;14.00;69.80;;;;;;9143926;19;20018;-68
2024/03/10 12:52:44;;;;;;;35.08;19.05;;;14.10;69.70;;;;;;9131855;19;20094;-69
2024/03/10 12:55:55;;;;;;;30.67;17.23;;;14.10;69.60;;;;;;9151224;19;20010;-69
2024/03/10 12:59:01;;;;;;;35.08;19.85;;;14.10;69.40;;;;;;9169914;19;20022;-69
2024/03/10 13:02:08;;;;;;;35.42;19.35;;;14.10;69.60;;;;;;9172627;19;20006;-68
2024/03/10 13:05:15;;;;;;;32.70;19.92;;;14.00;69.40;;;;;;9172349;19;20274;-68
2024/03/10 13:08:23;;;;;;;33.08;20.17;;;14.00;69.40;;;;;;9173037;19;20022;-68
2024/03/10 13:11:31;;;;;;;32.83;19.50;;;13.90;69.30;;;;;;9171549;19;20081;-71
2024/03/10 13:14:39;;;;;;;33.03;19.65;;;13.90;69.30;;;;;;9171966;19;20010;-70
2024/03/10 13:17:45;;;;;;;32.17;19.15;;;13.80;69.30;;;;;;9173838;19;20042;-68
2024/03/10 13:20:53;;;;;;;31.60;18.30;;;13.80;69.30;;;;;;9169020;19;20014;-68
2024/03/10 13:23:59;;;;;;;28.95;17.45;;;13.80;69.30;;;;;;9170648;19;20022;-69
2024/03/10 13:27:09;;;;;;;31.88;18.33;;;13.70;69.20;;;;;;9171774;19;20018;-69
2024/03/10 13:30:15;;;;;;;32.72;19.20;;;13.70;69.80;;;;;;9171655;19;20015;-69
2024/03/10 13:33:23;;;;;;;31.38;17.67;;;13.70;69.30;;;;;;9170206;19;20360;-69
2024/03/10 13:36:29;;;;;;;34.08;18.70;;;13.70;69.30;;;;;;9171491;19;20014;-69
2024/03/10 13:39:36;;;;;;;32.85;19.52;;;13.60;69.20;;;;;;9168003;19;20011;-70
2024/03/10 13:42:47;;;;;;;30.70;18.10;;;13.60;69.80;;;;;;9171786;19;20022;-69
2024/03/10 13:45:56;;;;;;;23.40;13.70;;;13.60;69.20;;;;;;9172566;19;20673;-70
2024/03/10 13:49:06;;;;;;;33.80;19.80;;;13.60;69.30;;;;;;9170755;19;20696;-69
2024/03/10 13:52:17;;;;;;;31.73;18.67;;;13.60;69.20;;;;;;9170953;19;20021;-70
2024/03/10 13:55:25;;;;;;;31.52;19.48;;;13.50;69.80;;;;;;9171177;19;20017;-69
2024/03/10 13:58:36;;;;;;;33.30;19.35;;;13.50;69.20;;;;;;9168860;19;20487;-68
2024/03/10 14:01:42;;;;;;;31.55;18.85;;;13.40;69.10;;;;;;9171030;19;20015;-69
2024/03/10 14:04:49;;;;;;;30.05;18.58;;;13.40;69.20;;;;;;9171097;19;20010;-69
2024/03/10 14:07:55;;;;;;;34.85;18.75;;;13.40;69.20;;;;;;9171917;19;20023;-67
2024/03/10 14:11:03;;;;;;;32.38;19.58;;;13.30;69.20;;;;;;9174777;19;20011;-69
2024/03/10 14:14:11;;;;;;;33.53;19.70;;;13.30;69.20;;;;;;9179334;19;20022;-68
2024/03/10 14:17:19;;;;;;;32.35;18.67;;;13.30;69.20;;;;;;9180225;19;20021;-69
2024/03/10 14:20:25;;;;;;;33.58;20.00;;;13.20;69.30;;;;;;9180854;19;20367;-69
2024/03/10 14:23:33;;;;;;;28.63;17.60;;;13.20;69.30;;;;;;9176250;19;20011;-69
2024/03/10 14:26:39;;;;;;;29.98;18.20;;;13.20;69.40;;;;;;9181750;19;20010;-69
2024/03/10 14:29:50;;;;;;;33.58;19.30;;;13.20;69.40;;;;;;9180492;19;20014;-69
2024/03/10 14:32:55;;;;;;;33.30;20.05;;;13.20;69.30;;;;;;9180585;19;20494;-69
2024/03/10 14:36:08;;;;;;;35.63;18.65;;;13.10;69.30;;;;;;9180217;19;20022;-69
2024/03/10 14:39:15;;;;;;;30.52;18.75;;;13.10;69.40;;;;;;9172177;19;20050;-69
2024/03/10 14:42:24;;;;;;;32.30;19.08;;;13.10;69.40;;;;;;9178890;19;20018;-69
2024/03/10 14:45:32;;;;;;;34.65;18.77;;;13.10;70.00;;;;;;9177701;19;20022;-69
2024/03/10 14:48:40;;;;;;;28.73;16.25;;;13.10;69.30;;;;;;9178930;19;20019;-69
2024/03/10 14:51:45;;;;;;;26.73;15.95;;;13.10;69.30;;;;;;9177023;19;20748;-68
2024/03/10 14:54:53;;;;;;;31.15;16.80;;;13.10;69.30;;;;;;9173659;19;20015;-70
2024/03/10 14:58:04;;;;;;;28.92;17.23;;;13.10;69.20;;;;;;9177785;19;20109;-69
2024/03/10 15:01:14;;;;;;;26.50;16.48;;;13.10;69.20;;;;;;9178082;19;20018;-69
2024/03/10 15:04:32;;;;;;;26.25;15.77;;;13.10;69.20;;;;;;9174686;19;20501;-69
2024/03/10 15:07:40;;;;;;;25.92;15.88;;;13.10;69.10;;;;;;9177219;19;20022;-69
2024/03/10 15:10:51;;;;;;;30.02;16.52;;;13.10;69.10;;;;;;9175739;19;20022;-70
2024/03/10 15:14:00;;;;;;;28.92;16.40;;;13.10;69.00;;;;;;9177273;19;20030;-70
2024/03/10 15:17:08;;;;;;;26.08;15.82;;;13.10;69.00;;;;;;9176197;19;20105;-71
2024/03/10 15:20:18;;;;;;;27.42;16.25;;;13.10;68.90;;;;;;9176362;19;20382;-69
2024/03/10 15:23:24;;;;;;;25.88;15.30;;;13.00;68.90;;;;;;9171454;19;20388;-70
2024/03/10 15:26:32;;;;;;;28.02;15.35;;;13.00;68.90;;;;;;9173901;19;20025;-68
2024/03/10 15:29:38;;;;;;;31.70;16.60;;;12.90;68.80;;;;;;9176934;19;20043;-69
2024/03/10 15:32:50;;;;;;;26.77;15.65;;;12.90;69.40;;;;;;9175741;19;20015;-69
2024/03/10 15:35:56;;;;;;;30.27;16.45;;;12.90;68.70;;;;;;9176468;19;20019;-69
2024/03/10 15:39:04;;;;;;;27.85;16.20;;;12.80;68.80;;;;;;9171172;19;20137;-70
2024/03/10 15:42:09;;;;;;;27.48;14.65;;;12.80;68.80;;;;;;9173760;19;20053;-70
2024/03/10 15:45:18;;;;;;;26.95;16.00;;;12.70;68.80;;;;;;9173708;19;20030;-69
2024/03/10 15:48:27;;;;;;;26.08;15.38;;;12.70;68.80;;;;;;9176933;19;20007;-69
2024/03/10 15:51:35;;;;;;;31.20;15.60;;;12.70;68.90;;;;;;9169349;19;20022;-70
2024/03/10 15:54:40;;;;;;;27.50;15.73;;;12.60;68.80;;;;;;9173890;19;20543;-69
2024/03/10 15:57:50;;;;;;;26.48;14.93;;;12.60;68.80;;;;;;9174511;19;20010;-69
2024/03/10 16:00:55;;;;;;;24.52;14.52;;;12.50;68.80;;;;;;9175004;19;20030;-69
2024/03/10 16:04:09;;;;;;;29.05;15.60;;;12.50;68.90;;;;;;9171410;19;20010;-69
2024/03/10 16:07:15;;;;;;;23.92;14.38;;;12.50;68.80;;;;;;9173052;19;20360;-68
2024/03/10 16:10:23;;;;;;;26.30;14.68;;;12.40;68.90;;;;;;9176520;19;20491;-69
2024/03/10 16:13:34;;;;;;;26.35;15.38;;;12.40;68.90;;;;;;9172900;19;20086;-69
2024/03/10 16:16:42;;;;;;;25.83;15.37;;;12.40;68.90;;;;;;9174527;19;20014;-69
2024/03/10 16:19:51;;;;;;;27.65;15.50;;;12.30;68.90;;;;;;9175769;19;20018;-69
2024/03/10 16:22:58;;;;;;;27.65;16.08;;;12.30;68.90;;;;;;9175413;19;20014;-69
2024/03/10 16:26:05;;;;;;;28.00;15.60;;;12.30;68.90;;;;;;9173456;19;20073;-69